<?xml version="1.0" encoding="utf-8"?>
<gpx xmlns:xsi="http://www.w3.org/2001/XMLSchema-instance" xmlns:xsd="http://www.w3.org/2001/XMLSchema" version="1.1" creator="Shapelink.com" xmlns="http://www.topografix.com/GPX/1/1" xmlns:gpxtpx="http://www.garmin.com/xmlschemas/TrackPointExtension/v1">
  <metadata>
    <name>Ejecutar 5.70 km, 2020-03-30</name>
    <desc></desc>
    <author><name>Per Rooth</name></author> 
    <time>2020-03-30T17:43:33Z</time>
  </metadata>
  <trk>
    <name>Ejecutar 5.70 km, 2020-03-30</name>
    <trkseg>
      <trkpt lat="56.91899850484" lon="14.823804383498">
        <ele>156.2</ele>
        <time>2020-03-30T17:43:33Z</time>
      </trkpt>
      <trkpt lat="56.918938658074" lon="14.823764737111">
        <ele>155.2</ele>
        <time>2020-03-30T17:43:36Z</time>
      </trkpt>
      <trkpt lat="56.918820976198" lon="14.823725426">
        <ele>156.6</ele>
        <time>2020-03-30T17:43:42Z</time>
      </trkpt>
      <trkpt lat="56.918625342652" lon="14.823709835666">
        <ele>156.4</ele>
        <time>2020-03-30T17:43:50Z</time>
      </trkpt>
      <trkpt lat="56.918451082951" lon="14.823603217898">
        <ele>158</ele>
        <time>2020-03-30T17:43:57Z</time>
      </trkpt>
      <trkpt lat="56.918387715787" lon="14.823580502949">
        <ele>158.4</ele>
        <time>2020-03-30T17:44:00Z</time>
      </trkpt>
      <trkpt lat="56.918266262056" lon="14.823815866701">
        <ele>158</ele>
        <time>2020-03-30T17:44:07Z</time>
      </trkpt>
      <trkpt lat="56.918158219365" lon="14.824106383355">
        <ele>158</ele>
        <time>2020-03-30T17:44:14Z</time>
      </trkpt>
      <trkpt lat="56.918044728439" lon="14.82437167049">
        <ele>157</ele>
        <time>2020-03-30T17:44:21Z</time>
      </trkpt>
      <trkpt lat="56.918027797001" lon="14.824415675465">
        <ele>156.8</ele>
        <time>2020-03-30T17:44:22Z</time>
      </trkpt>
      <trkpt lat="56.917912378238" lon="14.824704599558">
        <ele>157</ele>
        <time>2020-03-30T17:44:29Z</time>
      </trkpt>
      <trkpt lat="56.917859572268" lon="14.824750113275">
        <ele>157</ele>
        <time>2020-03-30T17:44:31Z</time>
      </trkpt>
      <trkpt lat="56.917720348909" lon="14.825011712374">
        <ele>156.6</ele>
        <time>2020-03-30T17:44:38Z</time>
      </trkpt>
      <trkpt lat="56.91760375668" lon="14.825296529336">
        <ele>156.2</ele>
        <time>2020-03-30T17:44:45Z</time>
      </trkpt>
      <trkpt lat="56.917496887455" lon="14.825554021304">
        <ele>156.2</ele>
        <time>2020-03-30T17:44:52Z</time>
      </trkpt>
      <trkpt lat="56.917396304655" lon="14.825829534357">
        <ele>156.4</ele>
        <time>2020-03-30T17:44:59Z</time>
      </trkpt>
      <trkpt lat="56.917295051303" lon="14.826106220876">
        <ele>156.4</ele>
        <time>2020-03-30T17:45:05Z</time>
      </trkpt>
      <trkpt lat="56.91719220539" lon="14.826384751413">
        <ele>156.4</ele>
        <time>2020-03-30T17:45:11Z</time>
      </trkpt>
      <trkpt lat="56.91710335725" lon="14.826587509574">
        <ele>156.2</ele>
        <time>2020-03-30T17:45:16Z</time>
      </trkpt>
      <trkpt lat="56.916994727826" lon="14.826862100618">
        <ele>156.6</ele>
        <time>2020-03-30T17:45:23Z</time>
      </trkpt>
      <trkpt lat="56.916877381226" lon="14.827154209833">
        <ele>156.4</ele>
        <time>2020-03-30T17:45:31Z</time>
      </trkpt>
      <trkpt lat="56.916762884472" lon="14.827445145582">
        <ele>156.4</ele>
        <time>2020-03-30T17:45:38Z</time>
      </trkpt>
      <trkpt lat="56.916634138488" lon="14.827713031106">
        <ele>156.6</ele>
        <time>2020-03-30T17:45:45Z</time>
      </trkpt>
      <trkpt lat="56.916517965354" lon="14.827986197227">
        <ele>156.6</ele>
        <time>2020-03-30T17:45:52Z</time>
      </trkpt>
      <trkpt lat="56.916405815532" lon="14.828271014189">
        <ele>157.2</ele>
        <time>2020-03-30T17:45:59Z</time>
      </trkpt>
      <trkpt lat="56.91631797322" lon="14.828452566143">
        <ele>156.2</ele>
        <time>2020-03-30T17:46:05Z</time>
      </trkpt>
      <trkpt lat="56.916191574168" lon="14.82881659206">
        <ele>156.4</ele>
        <time>2020-03-30T17:54:54Z</time>
      </trkpt>
      <trkpt lat="56.916184365734" lon="14.828880126862">
        <ele>155.8</ele>
        <time>2020-03-30T17:54:57Z</time>
      </trkpt>
      <trkpt lat="56.916165925554" lon="14.828948020252">
        <ele>155.4</ele>
        <time>2020-03-30T17:54:59Z</time>
      </trkpt>
      <trkpt lat="56.916050171515" lon="14.829236860526">
        <ele>155.8</ele>
        <time>2020-03-30T17:55:08Z</time>
      </trkpt>
      <trkpt lat="56.915912121622" lon="14.829306849391">
        <ele>155.4</ele>
        <time>2020-03-30T17:55:15Z</time>
      </trkpt>
      <trkpt lat="56.915858561281" lon="14.829356470239">
        <ele>155.2</ele>
        <time>2020-03-30T17:55:18Z</time>
      </trkpt>
      <trkpt lat="56.915710369289" lon="14.829356554058">
        <ele>156</ele>
        <time>2020-03-30T17:55:25Z</time>
      </trkpt>
      <trkpt lat="56.915606182272" lon="14.829246751168">
        <ele>157.2</ele>
        <time>2020-03-30T17:55:30Z</time>
      </trkpt>
      <trkpt lat="56.915466288361" lon="14.829110461474">
        <ele>157.6</ele>
        <time>2020-03-30T17:55:37Z</time>
      </trkpt>
      <trkpt lat="56.91543871191" lon="14.82909990028">
        <ele>157.6</ele>
        <time>2020-03-30T17:55:39Z</time>
      </trkpt>
      <trkpt lat="56.915391102718" lon="14.829159327951">
        <ele>157</ele>
        <time>2020-03-30T17:55:47Z</time>
      </trkpt>
      <trkpt lat="56.915370734701" lon="14.829184222194">
        <ele>157.4</ele>
        <time>2020-03-30T17:55:49Z</time>
      </trkpt>
      <trkpt lat="56.915241234346" lon="14.82923652525">
        <ele>158.2</ele>
        <time>2020-03-30T17:55:55Z</time>
      </trkpt>
      <trkpt lat="56.915200498312" lon="14.829260413665">
        <ele>158.2</ele>
        <time>2020-03-30T17:55:57Z</time>
      </trkpt>
      <trkpt lat="56.91514199265" lon="14.829245493883">
        <ele>158.8</ele>
        <time>2020-03-30T17:56:01Z</time>
      </trkpt>
      <trkpt lat="56.915130509447" lon="14.829301568794">
        <ele>158.8</ele>
        <time>2020-03-30T17:56:03Z</time>
      </trkpt>
      <trkpt lat="56.915129084524" lon="14.829417658109">
        <ele>158.6</ele>
        <time>2020-03-30T17:56:07Z</time>
      </trkpt>
      <trkpt lat="56.91513444894" lon="14.829430482416">
        <ele>158.4</ele>
        <time>2020-03-30T17:56:08Z</time>
      </trkpt>
      <trkpt lat="56.915159427002" lon="14.829455041383">
        <ele>158.2</ele>
        <time>2020-03-30T17:56:11Z</time>
      </trkpt>
      <trkpt lat="56.915193206059" lon="14.829543470428">
        <ele>157.8</ele>
        <time>2020-03-30T17:56:14Z</time>
      </trkpt>
      <trkpt lat="56.915219860501" lon="14.829614716578">
        <ele>157.2</ele>
        <time>2020-03-30T17:56:17Z</time>
      </trkpt>
      <trkpt lat="56.91526185382" lon="14.829660984666">
        <ele>156.6</ele>
        <time>2020-03-30T17:56:20Z</time>
      </trkpt>
      <trkpt lat="56.915315414161" lon="14.829664337426">
        <ele>156.8</ele>
        <time>2020-03-30T17:56:22Z</time>
      </trkpt>
      <trkpt lat="56.915444830697" lon="14.829921745575">
        <ele>156.8</ele>
        <time>2020-03-30T17:56:30Z</time>
      </trkpt>
      <trkpt lat="56.915579863106" lon="14.830134729654">
        <ele>157.2</ele>
        <time>2020-03-30T17:56:39Z</time>
      </trkpt>
      <trkpt lat="56.915608529204" lon="14.83028510094">
        <ele>156.2</ele>
        <time>2020-03-30T17:56:43Z</time>
      </trkpt>
      <trkpt lat="56.915618419846" lon="14.830515938466">
        <ele>155.2</ele>
        <time>2020-03-30T17:56:48Z</time>
      </trkpt>
      <trkpt lat="56.915688660168" lon="14.830889519749">
        <ele>155.2</ele>
        <time>2020-03-30T17:56:56Z</time>
      </trkpt>
      <trkpt lat="56.915691929109" lon="14.831015080611">
        <ele>155.4</ele>
        <time>2020-03-30T17:56:58Z</time>
      </trkpt>
      <trkpt lat="56.915687821978" lon="14.831336861752">
        <ele>155.4</ele>
        <time>2020-03-30T17:57:04Z</time>
      </trkpt>
      <trkpt lat="56.915742807242" lon="14.83166392349">
        <ele>155.8</ele>
        <time>2020-03-30T17:57:09Z</time>
      </trkpt>
      <trkpt lat="56.915803995112" lon="14.831774816027">
        <ele>156.2</ele>
        <time>2020-03-30T17:57:13Z</time>
      </trkpt>
      <trkpt lat="56.915830230459" lon="14.831788227067">
        <ele>156.2</ele>
        <time>2020-03-30T17:57:15Z</time>
      </trkpt>
      <trkpt lat="56.915844898784" lon="14.831763919557">
        <ele>156</ele>
        <time>2020-03-30T17:57:17Z</time>
      </trkpt>
      <trkpt lat="56.915878174927" lon="14.831728799396">
        <ele>155.6</ele>
        <time>2020-03-30T17:57:20Z</time>
      </trkpt>
      <trkpt lat="56.91588881994" lon="14.83174522792">
        <ele>155.6</ele>
        <time>2020-03-30T17:57:24Z</time>
      </trkpt>
      <trkpt lat="56.915884461352" lon="14.831761824082">
        <ele>155.8</ele>
        <time>2020-03-30T17:57:25Z</time>
      </trkpt>
      <trkpt lat="56.915868368104" lon="14.831825861798">
        <ele>156</ele>
        <time>2020-03-30T17:57:27Z</time>
      </trkpt>
      <trkpt lat="56.915829056993" lon="14.831952763764">
        <ele>156</ele>
        <time>2020-03-30T17:57:35Z</time>
      </trkpt>
      <trkpt lat="56.915837103617" lon="14.832033230004">
        <ele>155.6</ele>
        <time>2020-03-30T17:57:37Z</time>
      </trkpt>
      <trkpt lat="56.915808856614" lon="14.832337492974">
        <ele>155.2</ele>
        <time>2020-03-30T17:57:44Z</time>
      </trkpt>
      <trkpt lat="56.915812293193" lon="14.832712415361">
        <ele>155.6</ele>
        <time>2020-03-30T17:57:50Z</time>
      </trkpt>
      <trkpt lat="56.915807096415" lon="14.833062611143">
        <ele>155.4</ele>
        <time>2020-03-30T17:57:56Z</time>
      </trkpt>
      <trkpt lat="56.915804078931" lon="14.833118015502">
        <ele>155.2</ele>
        <time>2020-03-30T17:57:57Z</time>
      </trkpt>
      <trkpt lat="56.915849760286" lon="14.833433174942">
        <ele>155</ele>
        <time>2020-03-30T17:58:04Z</time>
      </trkpt>
      <trkpt lat="56.915844731146" lon="14.833464690886">
        <ele>154.6</ele>
        <time>2020-03-30T17:58:07Z</time>
      </trkpt>
      <trkpt lat="56.915826626242" lon="14.833514144096">
        <ele>154.2</ele>
        <time>2020-03-30T17:58:10Z</time>
      </trkpt>
      <trkpt lat="56.915829476088" lon="14.833517496856">
        <ele>154.2</ele>
        <time>2020-03-30T17:58:11Z</time>
      </trkpt>
      <trkpt lat="56.91575890049" lon="14.833590670843">
        <ele>155</ele>
        <time>2020-03-30T17:58:26Z</time>
      </trkpt>
      <trkpt lat="56.915754206626" lon="14.833607434643">
        <ele>155.2</ele>
        <time>2020-03-30T17:58:27Z</time>
      </trkpt>
      <trkpt lat="56.915719589379" lon="14.833678764612">
        <ele>155.4</ele>
        <time>2020-03-30T17:58:30Z</time>
      </trkpt>
      <trkpt lat="56.915646499211" lon="14.833767445114">
        <ele>155</ele>
        <time>2020-03-30T17:58:34Z</time>
      </trkpt>
      <trkpt lat="56.915727216908" lon="14.833921001522">
        <ele>155.2</ele>
        <time>2020-03-30T17:58:47Z</time>
      </trkpt>
      <trkpt lat="56.91582763207" lon="14.833928964327">
        <ele>155.2</ele>
        <time>2020-03-30T17:58:52Z</time>
      </trkpt>
      <trkpt lat="56.915887562655" lon="14.834063996736">
        <ele>155.2</ele>
        <time>2020-03-30T17:58:56Z</time>
      </trkpt>
      <trkpt lat="56.915912959812" lon="14.834435147268">
        <ele>156.2</ele>
        <time>2020-03-30T17:59:02Z</time>
      </trkpt>
      <trkpt lat="56.915938859883" lon="14.834758437151">
        <ele>157.2</ele>
        <time>2020-03-30T17:59:06Z</time>
      </trkpt>
      <trkpt lat="56.915944056661" lon="14.83484401635">
        <ele>157.4</ele>
        <time>2020-03-30T17:59:07Z</time>
      </trkpt>
      <trkpt lat="56.91596258066" lon="14.834919704907">
        <ele>157.2</ele>
        <time>2020-03-30T17:59:09Z</time>
      </trkpt>
      <trkpt lat="56.915806258225" lon="14.83492783535">
        <ele>157.4</ele>
        <time>2020-03-30T17:59:17Z</time>
      </trkpt>
      <trkpt lat="56.915627220841" lon="14.834823983609">
        <ele>157.4</ele>
        <time>2020-03-30T17:59:22Z</time>
      </trkpt>
      <trkpt lat="56.915557818709" lon="14.834794479321">
        <ele>156.6</ele>
        <time>2020-03-30T17:59:24Z</time>
      </trkpt>
      <trkpt lat="56.91550744349" lon="14.834799759918">
        <ele>156.2</ele>
        <time>2020-03-30T17:59:25Z</time>
      </trkpt>
      <trkpt lat="56.915316252351" lon="14.834719796592">
        <ele>156.2</ele>
        <time>2020-03-30T17:59:31Z</time>
      </trkpt>
      <trkpt lat="56.915106034299" lon="14.83464033618">
        <ele>155.8</ele>
        <time>2020-03-30T17:59:37Z</time>
      </trkpt>
      <trkpt lat="56.914926074906" lon="14.834641844922">
        <ele>155.4</ele>
        <time>2020-03-30T17:59:42Z</time>
      </trkpt>
      <trkpt lat="56.914743684762" lon="14.834541345941">
        <ele>155.8</ele>
        <time>2020-03-30T17:59:48Z</time>
      </trkpt>
      <trkpt lat="56.914720885994" lon="14.834271113485">
        <ele>156.2</ele>
        <time>2020-03-30T17:59:55Z</time>
      </trkpt>
      <trkpt lat="56.914623823592" lon="14.834232808202">
        <ele>155.6</ele>
        <time>2020-03-30T18:00:01Z</time>
      </trkpt>
      <trkpt lat="56.914467501157" lon="14.834075982853">
        <ele>155.8</ele>
        <time>2020-03-30T18:00:08Z</time>
      </trkpt>
      <trkpt lat="56.914411258608" lon="14.834027535471">
        <ele>155.8</ele>
        <time>2020-03-30T18:00:10Z</time>
      </trkpt>
      <trkpt lat="56.914297851501" lon="14.833921252979">
        <ele>156</ele>
        <time>2020-03-30T18:00:15Z</time>
      </trkpt>
      <trkpt lat="56.914185953136" lon="14.833911027061">
        <ele>157.4</ele>
        <time>2020-03-30T18:00:20Z</time>
      </trkpt>
      <trkpt lat="56.914014459462" lon="14.833965928506">
        <ele>158.4</ele>
        <time>2020-03-30T18:00:26Z</time>
      </trkpt>
      <trkpt lat="56.913934831412" lon="14.834016303725">
        <ele>157.4</ele>
        <time>2020-03-30T18:00:29Z</time>
      </trkpt>
      <trkpt lat="56.913858639941" lon="14.83413909856">
        <ele>156.6</ele>
        <time>2020-03-30T18:00:34Z</time>
      </trkpt>
      <trkpt lat="56.913840032123" lon="14.834168770486">
        <ele>156.8</ele>
        <time>2020-03-30T18:00:36Z</time>
      </trkpt>
      <trkpt lat="56.913823100685" lon="14.834109091358">
        <ele>156.2</ele>
        <time>2020-03-30T18:00:50Z</time>
      </trkpt>
      <trkpt lat="56.91382016702" lon="14.833930556888">
        <ele>156</ele>
        <time>2020-03-30T18:01:04Z</time>
      </trkpt>
      <trkpt lat="56.91391739706" lon="14.833858053453">
        <ele>157.4</ele>
        <time>2020-03-30T18:01:09Z</time>
      </trkpt>
      <trkpt lat="56.91412023904" lon="14.833843888042">
        <ele>157.8</ele>
        <time>2020-03-30T18:01:17Z</time>
      </trkpt>
      <trkpt lat="56.914294834017" lon="14.833793680461">
        <ele>156</ele>
        <time>2020-03-30T18:01:23Z</time>
      </trkpt>
      <trkpt lat="56.91445635323" lon="14.833612799059">
        <ele>156</ele>
        <time>2020-03-30T18:01:30Z</time>
      </trkpt>
      <trkpt lat="56.91457286164" lon="14.833352289607">
        <ele>155.4</ele>
        <time>2020-03-30T18:01:37Z</time>
      </trkpt>
      <trkpt lat="56.914618207719" lon="14.833097563666">
        <ele>157</ele>
        <time>2020-03-30T18:01:42Z</time>
      </trkpt>
      <trkpt lat="56.914627092533" lon="14.833057749641">
        <ele>157.2</ele>
        <time>2020-03-30T18:01:43Z</time>
      </trkpt>
      <trkpt lat="56.914666236006" lon="14.83290863564">
        <ele>158.6</ele>
        <time>2020-03-30T18:01:46Z</time>
      </trkpt>
      <trkpt lat="56.914675707553" lon="14.832875694773">
        <ele>159</ele>
        <time>2020-03-30T18:01:47Z</time>
      </trkpt>
      <trkpt lat="56.914741505468" lon="14.832700932158">
        <ele>159.8</ele>
        <time>2020-03-30T18:01:52Z</time>
      </trkpt>
      <trkpt lat="56.914759694191" lon="14.832570258337">
        <ele>160.6</ele>
        <time>2020-03-30T18:01:55Z</time>
      </trkpt>
      <trkpt lat="56.91477570362" lon="14.832537568927">
        <ele>161.2</ele>
        <time>2020-03-30T18:01:57Z</time>
      </trkpt>
      <trkpt lat="56.914821133518" lon="14.832490630287">
        <ele>160.2</ele>
        <time>2020-03-30T18:02:01Z</time>
      </trkpt>
      <trkpt lat="56.914822139346" lon="14.832479985274">
        <ele>160</ele>
        <time>2020-03-30T18:02:02Z</time>
      </trkpt>
      <trkpt lat="56.914828593409" lon="14.832463808207">
        <ele>159.6</ele>
        <time>2020-03-30T18:02:03Z</time>
      </trkpt>
      <trkpt lat="56.914876202601" lon="14.832294326189">
        <ele>160</ele>
        <time>2020-03-30T18:02:08Z</time>
      </trkpt>
      <trkpt lat="56.914916938635" lon="14.832212854121">
        <ele>161.2</ele>
        <time>2020-03-30T18:02:11Z</time>
      </trkpt>
      <trkpt lat="56.914925152897" lon="14.83220287966">
        <ele>161.4</ele>
        <time>2020-03-30T18:02:12Z</time>
      </trkpt>
      <trkpt lat="56.914981395446" lon="14.832137165564">
        <ele>161.4</ele>
        <time>2020-03-30T18:02:15Z</time>
      </trkpt>
      <trkpt lat="56.915044175877" lon="14.832113277149">
        <ele>161.8</ele>
        <time>2020-03-30T18:02:17Z</time>
      </trkpt>
      <trkpt lat="56.915092287983" lon="14.832094920788">
        <ele>162.4</ele>
        <time>2020-03-30T18:02:19Z</time>
      </trkpt>
      <trkpt lat="56.915142327926" lon="14.832064075396">
        <ele>162.6</ele>
        <time>2020-03-30T18:02:21Z</time>
      </trkpt>
      <trkpt lat="56.915221536881" lon="14.831952512307">
        <ele>161</ele>
        <time>2020-03-30T18:02:26Z</time>
      </trkpt>
      <trkpt lat="56.915247017857" lon="14.831885373288">
        <ele>160.4</ele>
        <time>2020-03-30T18:02:28Z</time>
      </trkpt>
      <trkpt lat="56.915260596535" lon="14.831867938936">
        <ele>160</ele>
        <time>2020-03-30T18:02:29Z</time>
      </trkpt>
      <trkpt lat="56.915320778577" lon="14.831777498235">
        <ele>159</ele>
        <time>2020-03-30T18:02:33Z</time>
      </trkpt>
      <trkpt lat="56.915345086087" lon="14.831690326475">
        <ele>158.8</ele>
        <time>2020-03-30T18:02:35Z</time>
      </trkpt>
      <trkpt lat="56.915344499354" lon="14.831658559074">
        <ele>158.8</ele>
        <time>2020-03-30T18:02:36Z</time>
      </trkpt>
      <trkpt lat="56.915326142993" lon="14.831573315151">
        <ele>158.2</ele>
        <time>2020-03-30T18:02:40Z</time>
      </trkpt>
      <trkpt lat="56.915330920676" lon="14.831437360733">
        <ele>157.8</ele>
        <time>2020-03-30T18:02:45Z</time>
      </trkpt>
      <trkpt lat="56.915328489925" lon="14.831413388499">
        <ele>157.8</ele>
        <time>2020-03-30T18:02:46Z</time>
      </trkpt>
      <trkpt lat="56.915314827428" lon="14.831380531451">
        <ele>157.8</ele>
        <time>2020-03-30T18:02:48Z</time>
      </trkpt>
      <trkpt lat="56.915304350053" lon="14.83135882233">
        <ele>157.4</ele>
        <time>2020-03-30T18:02:51Z</time>
      </trkpt>
      <trkpt lat="56.915291944841" lon="14.831369215886">
        <ele>157.4</ele>
        <time>2020-03-30T18:02:53Z</time>
      </trkpt>
      <trkpt lat="56.915234109731" lon="14.831396289423">
        <ele>157.6</ele>
        <time>2020-03-30T18:02:56Z</time>
      </trkpt>
      <trkpt lat="56.915184656521" lon="14.831420680752">
        <ele>158.6</ele>
        <time>2020-03-30T18:03:00Z</time>
      </trkpt>
      <trkpt lat="56.915175604069" lon="14.831441635502">
        <ele>159</ele>
        <time>2020-03-30T18:03:01Z</time>
      </trkpt>
      <trkpt lat="56.915138220795" lon="14.831470804514">
        <ele>160.6</ele>
        <time>2020-03-30T18:03:04Z</time>
      </trkpt>
      <trkpt lat="56.915123971565" lon="14.831478012948">
        <ele>161.2</ele>
        <time>2020-03-30T18:03:05Z</time>
      </trkpt>
      <trkpt lat="56.915065968817" lon="14.831528639624">
        <ele>161.6</ele>
        <time>2020-03-30T18:03:08Z</time>
      </trkpt>
      <trkpt lat="56.915046941904" lon="14.831552528039">
        <ele>161.8</ele>
        <time>2020-03-30T18:03:09Z</time>
      </trkpt>
      <trkpt lat="56.914970666614" lon="14.831651015364">
        <ele>162</ele>
        <time>2020-03-30T18:03:13Z</time>
      </trkpt>
      <trkpt lat="56.914799675854" lon="14.83174606611">
        <ele>162</ele>
        <time>2020-03-30T18:03:20Z</time>
      </trkpt>
      <trkpt lat="56.914780397484" lon="14.831765847394">
        <ele>162</ele>
        <time>2020-03-30T18:03:21Z</time>
      </trkpt>
      <trkpt lat="56.914596666236" lon="14.831824772151">
        <ele>161.8</ele>
        <time>2020-03-30T18:03:28Z</time>
      </trkpt>
      <trkpt lat="56.914552158347" lon="14.831808427446">
        <ele>161.6</ele>
        <time>2020-03-30T18:03:30Z</time>
      </trkpt>
      <trkpt lat="56.914473284668" lon="14.831724440808">
        <ele>162.4</ele>
        <time>2020-03-30T18:03:34Z</time>
      </trkpt>
      <trkpt lat="56.914463226388" lon="14.831700217117">
        <ele>162.8</ele>
        <time>2020-03-30T18:03:35Z</time>
      </trkpt>
      <trkpt lat="56.914405810373" lon="14.831675322874">
        <ele>164</ele>
        <time>2020-03-30T18:03:38Z</time>
      </trkpt>
      <trkpt lat="56.91434403577" lon="14.831632323727">
        <ele>164.4</ele>
        <time>2020-03-30T18:03:41Z</time>
      </trkpt>
      <trkpt lat="56.914289218144" lon="14.831604831095">
        <ele>163.8</ele>
        <time>2020-03-30T18:03:45Z</time>
      </trkpt>
      <trkpt lat="56.914232891776" lon="14.831517743154">
        <ele>163.8</ele>
        <time>2020-03-30T18:03:50Z</time>
      </trkpt>
      <trkpt lat="56.9142241746" lon="14.831470720695">
        <ele>164</ele>
        <time>2020-03-30T18:03:52Z</time>
      </trkpt>
      <trkpt lat="56.914218726365" lon="14.831390170636">
        <ele>163.2</ele>
        <time>2020-03-30T18:03:56Z</time>
      </trkpt>
      <trkpt lat="56.914211350293" lon="14.831374915578">
        <ele>163</ele>
        <time>2020-03-30T18:03:57Z</time>
      </trkpt>
      <trkpt lat="56.914181846005" lon="14.831339041046">
        <ele>162.8</ele>
        <time>2020-03-30T18:03:59Z</time>
      </trkpt>
      <trkpt lat="56.914118478841" lon="14.831322025789">
        <ele>162.6</ele>
        <time>2020-03-30T18:04:02Z</time>
      </trkpt>
      <trkpt lat="56.914055195496" lon="14.831382962202">
        <ele>163</ele>
        <time>2020-03-30T18:04:07Z</time>
      </trkpt>
      <trkpt lat="56.914013956548" lon="14.831363600013">
        <ele>163</ele>
        <time>2020-03-30T18:04:11Z</time>
      </trkpt>
      <trkpt lat="56.913999958775" lon="14.831341723254">
        <ele>163</ele>
        <time>2020-03-30T18:04:12Z</time>
      </trkpt>
      <trkpt lat="56.913970622125" lon="14.831313811527">
        <ele>163</ele>
        <time>2020-03-30T18:04:14Z</time>
      </trkpt>
      <trkpt lat="56.913946901348" lon="14.831303920885">
        <ele>162.6</ele>
        <time>2020-03-30T18:04:16Z</time>
      </trkpt>
      <trkpt lat="56.913926868607" lon="14.831305094351">
        <ele>162</ele>
        <time>2020-03-30T18:04:18Z</time>
      </trkpt>
      <trkpt lat="56.913922593838" lon="14.831296209537">
        <ele>161.8</ele>
        <time>2020-03-30T18:04:19Z</time>
      </trkpt>
      <trkpt lat="56.913888647143" lon="14.831334850096">
        <ele>161.4</ele>
        <time>2020-03-30T18:04:24Z</time>
      </trkpt>
      <trkpt lat="56.913869284954" lon="14.831344740738">
        <ele>161.2</ele>
        <time>2020-03-30T18:04:27Z</time>
      </trkpt>
      <trkpt lat="56.913872721533" lon="14.83135630776">
        <ele>161.2</ele>
        <time>2020-03-30T18:04:29Z</time>
      </trkpt>
      <trkpt lat="56.913871128972" lon="14.831452112877">
        <ele>161.2</ele>
        <time>2020-03-30T18:04:34Z</time>
      </trkpt>
      <trkpt lat="56.913890239704" lon="14.831483209726">
        <ele>161.4</ele>
        <time>2020-03-30T18:04:36Z</time>
      </trkpt>
      <trkpt lat="56.913922174743" lon="14.83151640205">
        <ele>161.6</ele>
        <time>2020-03-30T18:04:39Z</time>
      </trkpt>
      <trkpt lat="56.913928544987" lon="14.831516821145">
        <ele>162</ele>
        <time>2020-03-30T18:04:42Z</time>
      </trkpt>
      <trkpt lat="56.913937429801" lon="14.831533920221">
        <ele>162.2</ele>
        <time>2020-03-30T18:04:46Z</time>
      </trkpt>
      <trkpt lat="56.913962491682" lon="14.831561161396">
        <ele>162.4</ele>
        <time>2020-03-30T18:04:49Z</time>
      </trkpt>
      <trkpt lat="56.913993756169" lon="14.831579350119">
        <ele>162.8</ele>
        <time>2020-03-30T18:04:51Z</time>
      </trkpt>
      <trkpt lat="56.914010017055" lon="14.831589073123">
        <ele>163</ele>
        <time>2020-03-30T18:04:52Z</time>
      </trkpt>
      <trkpt lat="56.914075982608" lon="14.831566525812">
        <ele>164</ele>
        <time>2020-03-30T18:04:57Z</time>
      </trkpt>
      <trkpt lat="56.914086962897" lon="14.831557054265">
        <ele>164.2</ele>
        <time>2020-03-30T18:04:58Z</time>
      </trkpt>
      <trkpt lat="56.91409676972" lon="14.831538697904">
        <ele>163.6</ele>
        <time>2020-03-30T18:05:01Z</time>
      </trkpt>
      <trkpt lat="56.914074222409" lon="14.831505421761">
        <ele>163.4</ele>
        <time>2020-03-30T18:05:04Z</time>
      </trkpt>
      <trkpt lat="56.914062487749" lon="14.831526795606">
        <ele>163.4</ele>
        <time>2020-03-30T18:05:07Z</time>
      </trkpt>
      <trkpt lat="56.914050333994" lon="14.831463679899">
        <ele>163.4</ele>
        <time>2020-03-30T18:05:26Z</time>
      </trkpt>
      <trkpt lat="56.914061230464" lon="14.831437947466">
        <ele>163.4</ele>
        <time>2020-03-30T18:05:28Z</time>
      </trkpt>
      <trkpt lat="56.914065337595" lon="14.831367455687">
        <ele>163.2</ele>
        <time>2020-03-30T18:05:32Z</time>
      </trkpt>
      <trkpt lat="56.914062571568" lon="14.831340801245">
        <ele>162.8</ele>
        <time>2020-03-30T18:05:33Z</time>
      </trkpt>
      <trkpt lat="56.914058632075" lon="14.831287995275">
        <ele>163</ele>
        <time>2020-03-30T18:05:36Z</time>
      </trkpt>
      <trkpt lat="56.914089645105" lon="14.831164194612">
        <ele>163.2</ele>
        <time>2020-03-30T18:05:40Z</time>
      </trkpt>
      <trkpt lat="56.914113701158" lon="14.831096804136">
        <ele>163.2</ele>
        <time>2020-03-30T18:05:43Z</time>
      </trkpt>
      <trkpt lat="56.914107498552" lon="14.83102689909">
        <ele>161.2</ele>
        <time>2020-03-30T18:05:47Z</time>
      </trkpt>
      <trkpt lat="56.914094674245" lon="14.830998149173">
        <ele>160.8</ele>
        <time>2020-03-30T18:05:48Z</time>
      </trkpt>
      <trkpt lat="56.914067935984" lon="14.830934949647">
        <ele>160.2</ele>
        <time>2020-03-30T18:05:50Z</time>
      </trkpt>
      <trkpt lat="56.914038180239" lon="14.830886586084">
        <ele>159</ele>
        <time>2020-03-30T18:05:52Z</time>
      </trkpt>
      <trkpt lat="56.91401881805" lon="14.83089111231">
        <ele>158.8</ele>
        <time>2020-03-30T18:05:53Z</time>
      </trkpt>
      <trkpt lat="56.913945224968" lon="14.830886502265">
        <ele>158.2</ele>
        <time>2020-03-30T18:05:57Z</time>
      </trkpt>
      <trkpt lat="56.913856125371" lon="14.831038130836">
        <ele>158.6</ele>
        <time>2020-03-30T18:06:03Z</time>
      </trkpt>
      <trkpt lat="56.913796194786" lon="14.831324875635">
        <ele>160.4</ele>
        <time>2020-03-30T18:06:11Z</time>
      </trkpt>
      <trkpt lat="56.913766606679" lon="14.831359073787">
        <ele>161</ele>
        <time>2020-03-30T18:06:12Z</time>
      </trkpt>
      <trkpt lat="56.913749675241" lon="14.831384973858">
        <ele>161.4</ele>
        <time>2020-03-30T18:06:13Z</time>
      </trkpt>
      <trkpt lat="56.913693348873" lon="14.831550600202">
        <ele>162.4</ele>
        <time>2020-03-30T18:06:18Z</time>
      </trkpt>
      <trkpt lat="56.913674405779" lon="14.831599047584">
        <ele>162.6</ele>
        <time>2020-03-30T18:06:19Z</time>
      </trkpt>
      <trkpt lat="56.913644650034" lon="14.831697702547">
        <ele>162.6</ele>
        <time>2020-03-30T18:06:23Z</time>
      </trkpt>
      <trkpt lat="56.913631071356" lon="14.831685548792">
        <ele>162.4</ele>
        <time>2020-03-30T18:06:25Z</time>
      </trkpt>
      <trkpt lat="56.913558400283" lon="14.831639364523">
        <ele>162.2</ele>
        <time>2020-03-30T18:06:29Z</time>
      </trkpt>
      <trkpt lat="56.913438371475" lon="14.831546241614">
        <ele>161.4</ele>
        <time>2020-03-30T18:06:33Z</time>
      </trkpt>
      <trkpt lat="56.913354803932" lon="14.831378855071">
        <ele>160.4</ele>
        <time>2020-03-30T18:06:37Z</time>
      </trkpt>
      <trkpt lat="56.913289257474" lon="14.831246588689">
        <ele>159.4</ele>
        <time>2020-03-30T18:06:41Z</time>
      </trkpt>
      <trkpt lat="56.913184399905" lon="14.83094978561">
        <ele>159.4</ele>
        <time>2020-03-30T18:06:47Z</time>
      </trkpt>
      <trkpt lat="56.913174425444" lon="14.830773095158">
        <ele>159.2</ele>
        <time>2020-03-30T18:06:50Z</time>
      </trkpt>
      <trkpt lat="56.913234104572" lon="14.830420468625">
        <ele>159.4</ele>
        <time>2020-03-30T18:06:56Z</time>
      </trkpt>
      <trkpt lat="56.913290514759" lon="14.830070021386">
        <ele>158.6</ele>
        <time>2020-03-30T18:07:01Z</time>
      </trkpt>
      <trkpt lat="56.913350361525" lon="14.82975117391">
        <ele>158.8</ele>
        <time>2020-03-30T18:07:06Z</time>
      </trkpt>
      <trkpt lat="56.913419093105" lon="14.829384633423">
        <ele>160.4</ele>
        <time>2020-03-30T18:07:12Z</time>
      </trkpt>
      <trkpt lat="56.91346225989" lon="14.829142228875">
        <ele>159</ele>
        <time>2020-03-30T18:07:16Z</time>
      </trkpt>
      <trkpt lat="56.913494362567" lon="14.828979117101">
        <ele>158</ele>
        <time>2020-03-30T18:07:19Z</time>
      </trkpt>
      <trkpt lat="56.913576924282" lon="14.828656665408">
        <ele>157.8</ele>
        <time>2020-03-30T18:07:25Z</time>
      </trkpt>
      <trkpt lat="56.913612547357" lon="14.828468659391">
        <ele>159</ele>
        <time>2020-03-30T18:07:28Z</time>
      </trkpt>
      <trkpt lat="56.913679099643" lon="14.82812173255">
        <ele>158.4</ele>
        <time>2020-03-30T18:07:34Z</time>
      </trkpt>
      <trkpt lat="56.913745903386" lon="14.827774554252">
        <ele>158.6</ele>
        <time>2020-03-30T18:07:40Z</time>
      </trkpt>
      <trkpt lat="56.913812371853" lon="14.827445732315">
        <ele>158.8</ele>
        <time>2020-03-30T18:07:46Z</time>
      </trkpt>
      <trkpt lat="56.913833494241" lon="14.827343808411">
        <ele>158</ele>
        <time>2020-03-30T18:07:48Z</time>
      </trkpt>
      <trkpt lat="56.913893005731" lon="14.826995037552">
        <ele>158.6</ele>
        <time>2020-03-30T18:07:54Z</time>
      </trkpt>
      <trkpt lat="56.913960060931" lon="14.826684152881">
        <ele>158</ele>
        <time>2020-03-30T18:08:00Z</time>
      </trkpt>
      <trkpt lat="56.914052429469" lon="14.826379470816">
        <ele>157.4</ele>
        <time>2020-03-30T18:08:07Z</time>
      </trkpt>
      <trkpt lat="56.914166088033" lon="14.826379889911">
        <ele>156.8</ele>
        <time>2020-03-30T18:08:11Z</time>
      </trkpt>
      <trkpt lat="56.914338838992" lon="14.826400006471">
        <ele>156.2</ele>
        <time>2020-03-30T18:08:18Z</time>
      </trkpt>
      <trkpt lat="56.914438835059" lon="14.826127259445">
        <ele>157</ele>
        <time>2020-03-30T18:08:25Z</time>
      </trkpt>
      <trkpt lat="56.914462136741" lon="14.825861217939">
        <ele>157.2</ele>
        <time>2020-03-30T18:08:34Z</time>
      </trkpt>
      <trkpt lat="56.914519133661" lon="14.825792570178">
        <ele>157.2</ele>
        <time>2020-03-30T18:08:45Z</time>
      </trkpt>
      <trkpt lat="56.914686268747" lon="14.825613532794">
        <ele>157.8</ele>
        <time>2020-03-30T18:08:56Z</time>
      </trkpt>
      <trkpt lat="56.914810153229" lon="14.82544874464">
        <ele>156.8</ele>
        <time>2020-03-30T18:09:03Z</time>
      </trkpt>
      <trkpt lat="56.914904198147" lon="14.825327961461">
        <ele>156</ele>
        <time>2020-03-30T18:09:09Z</time>
      </trkpt>
      <trkpt lat="56.915009307173" lon="14.825148337344">
        <ele>156.2</ele>
        <time>2020-03-30T18:09:15Z</time>
      </trkpt>
      <trkpt lat="56.915035877796" lon="14.825093603537">
        <ele>156.2</ele>
        <time>2020-03-30T18:09:17Z</time>
      </trkpt>
      <trkpt lat="56.915089773413" lon="14.825019507541">
        <ele>156.4</ele>
        <time>2020-03-30T18:09:21Z</time>
      </trkpt>
      <trkpt lat="56.915173173318" lon="14.824848852057">
        <ele>156.4</ele>
        <time>2020-03-30T18:09:26Z</time>
      </trkpt>
      <trkpt lat="56.915358832403" lon="14.824686913749">
        <ele>156</ele>
        <time>2020-03-30T18:09:35Z</time>
      </trkpt>
      <trkpt lat="56.915435107693" lon="14.824641651489">
        <ele>156</ele>
        <time>2020-03-30T18:09:39Z</time>
      </trkpt>
      <trkpt lat="56.915461929773" lon="14.824622540757">
        <ele>155.6</ele>
        <time>2020-03-30T18:09:41Z</time>
      </trkpt>
      <trkpt lat="56.915510293336" lon="14.824607453337">
        <ele>155.8</ele>
        <time>2020-03-30T18:09:44Z</time>
      </trkpt>
      <trkpt lat="56.915554801225" lon="14.824613153029">
        <ele>155.8</ele>
        <time>2020-03-30T18:09:47Z</time>
      </trkpt>
      <trkpt lat="56.915625963556" lon="14.824609884088">
        <ele>155.8</ele>
        <time>2020-03-30T18:09:50Z</time>
      </trkpt>
      <trkpt lat="56.915667202504" lon="14.824597646514">
        <ele>155.8</ele>
        <time>2020-03-30T18:09:52Z</time>
      </trkpt>
      <trkpt lat="56.915743310156" lon="14.824622373119">
        <ele>156</ele>
        <time>2020-03-30T18:09:55Z</time>
      </trkpt>
      <trkpt lat="56.9158754089" lon="14.824581888542">
        <ele>156.2</ele>
        <time>2020-03-30T18:10:00Z</time>
      </trkpt>
      <trkpt lat="56.915915977296" lon="14.824577110859">
        <ele>156.2</ele>
        <time>2020-03-30T18:10:02Z</time>
      </trkpt>
      <trkpt lat="56.916101971657" lon="14.82448398795">
        <ele>155.4</ele>
        <time>2020-03-30T18:10:10Z</time>
      </trkpt>
      <trkpt lat="56.916254606056" lon="14.824496309343">
        <ele>155.8</ele>
        <time>2020-03-30T18:10:19Z</time>
      </trkpt>
      <trkpt lat="56.916405396437" lon="14.824404946633">
        <ele>156</ele>
        <time>2020-03-30T18:10:24Z</time>
      </trkpt>
      <trkpt lat="56.916499776631" lon="14.82433059918">
        <ele>157</ele>
        <time>2020-03-30T18:10:27Z</time>
      </trkpt>
      <trkpt lat="56.916572950618" lon="14.824228759095">
        <ele>158.2</ele>
        <time>2020-03-30T18:10:30Z</time>
      </trkpt>
      <trkpt lat="56.916746036853" lon="14.823984342891">
        <ele>159</ele>
        <time>2020-03-30T18:10:36Z</time>
      </trkpt>
      <trkpt lat="56.916870088973" lon="14.823750990795">
        <ele>158.2</ele>
        <time>2020-03-30T18:10:43Z</time>
      </trkpt>
      <trkpt lat="56.916955332896" lon="14.823529373359">
        <ele>159.4</ele>
        <time>2020-03-30T18:10:49Z</time>
      </trkpt>
      <trkpt lat="56.91705641861" lon="14.823374727304">
        <ele>160.4</ele>
        <time>2020-03-30T18:10:55Z</time>
      </trkpt>
      <trkpt lat="56.916995817473" lon="14.82334656412">
        <ele>160.8</ele>
        <time>2020-03-30T18:11:02Z</time>
      </trkpt>
      <trkpt lat="56.916925577151" lon="14.823331728157">
        <ele>160.6</ele>
        <time>2020-03-30T18:11:08Z</time>
      </trkpt>
      <trkpt lat="56.916862629082" lon="14.823271378477">
        <ele>159.4</ele>
        <time>2020-03-30T18:11:12Z</time>
      </trkpt>
      <trkpt lat="56.916814349338" lon="14.823223936923">
        <ele>158</ele>
        <time>2020-03-30T18:11:15Z</time>
      </trkpt>
      <trkpt lat="56.916774702951" lon="14.823180267224">
        <ele>157</ele>
        <time>2020-03-30T18:11:19Z</time>
      </trkpt>
      <trkpt lat="56.916634892859" lon="14.822952866277">
        <ele>156.4</ele>
        <time>2020-03-30T18:11:30Z</time>
      </trkpt>
      <trkpt lat="56.916628774072" lon="14.822949178241">
        <ele>156.2</ele>
        <time>2020-03-30T18:11:31Z</time>
      </trkpt>
      <trkpt lat="56.916477313139" lon="14.822872316218">
        <ele>156.6</ele>
        <time>2020-03-30T18:11:42Z</time>
      </trkpt>
      <trkpt lat="56.916292324606" lon="14.822737367628">
        <ele>156.8</ele>
        <time>2020-03-30T18:11:51Z</time>
      </trkpt>
      <trkpt lat="56.916262904137" lon="14.822669809514">
        <ele>156.8</ele>
        <time>2020-03-30T18:11:55Z</time>
      </trkpt>
      <trkpt lat="56.916254438418" lon="14.822637539199">
        <ele>156.8</ele>
        <time>2020-03-30T18:11:56Z</time>
      </trkpt>
      <trkpt lat="56.916230633822" lon="14.822533855096">
        <ele>156.8</ele>
        <time>2020-03-30T18:12:00Z</time>
      </trkpt>
      <trkpt lat="56.916147904469" lon="14.822408042777">
        <ele>156.6</ele>
        <time>2020-03-30T18:12:03Z</time>
      </trkpt>
      <trkpt lat="56.916099960001" lon="14.822341155215">
        <ele>156.6</ele>
        <time>2020-03-30T18:12:06Z</time>
      </trkpt>
      <trkpt lat="56.916015470449" lon="14.82225272617">
        <ele>156.6</ele>
        <time>2020-03-30T18:12:13Z</time>
      </trkpt>
      <trkpt lat="56.9159257003" lon="14.822222216054">
        <ele>157</ele>
        <time>2020-03-30T18:12:19Z</time>
      </trkpt>
      <trkpt lat="56.915883958438" lon="14.822166224962">
        <ele>156.8</ele>
        <time>2020-03-30T18:12:25Z</time>
      </trkpt>
      <trkpt lat="56.915877001461" lon="14.822163458935">
        <ele>156.6</ele>
        <time>2020-03-30T18:12:27Z</time>
      </trkpt>
      <trkpt lat="56.915849341191" lon="14.822211068127">
        <ele>156.8</ele>
        <time>2020-03-30T18:12:32Z</time>
      </trkpt>
      <trkpt lat="56.915830649554" lon="14.822213079783">
        <ele>157.4</ele>
        <time>2020-03-30T18:12:34Z</time>
      </trkpt>
      <trkpt lat="56.91578069343" lon="14.822299161896">
        <ele>157.4</ele>
        <time>2020-03-30T18:12:39Z</time>
      </trkpt>
      <trkpt lat="56.915750099495" lon="14.822411563175">
        <ele>157.2</ele>
        <time>2020-03-30T18:12:43Z</time>
      </trkpt>
      <trkpt lat="56.915740041215" lon="14.822469230647">
        <ele>157.2</ele>
        <time>2020-03-30T18:12:45Z</time>
      </trkpt>
      <trkpt lat="56.91572704927" lon="14.822517510391">
        <ele>157.2</ele>
        <time>2020-03-30T18:12:47Z</time>
      </trkpt>
      <trkpt lat="56.915722690682" lon="14.822644244719">
        <ele>156.6</ele>
        <time>2020-03-30T18:12:54Z</time>
      </trkpt>
      <trkpt lat="56.915716488076" lon="14.822748850831">
        <ele>157.2</ele>
        <time>2020-03-30T18:12:58Z</time>
      </trkpt>
      <trkpt lat="56.91571531461" lon="14.822768799753">
        <ele>157</ele>
        <time>2020-03-30T18:13:01Z</time>
      </trkpt>
      <trkpt lat="56.915724199424" lon="14.8227615075">
        <ele>157</ele>
        <time>2020-03-30T18:13:03Z</time>
      </trkpt>
      <trkpt lat="56.915763761992" lon="14.822572328017">
        <ele>156.8</ele>
        <time>2020-03-30T18:13:14Z</time>
      </trkpt>
      <trkpt lat="56.915933746924" lon="14.822410808804">
        <ele>157.8</ele>
        <time>2020-03-30T18:13:25Z</time>
      </trkpt>
      <trkpt lat="56.916097948345" lon="14.822221545502">
        <ele>157.2</ele>
        <time>2020-03-30T18:13:34Z</time>
      </trkpt>
      <trkpt lat="56.916226275234" lon="14.821969585588">
        <ele>156.6</ele>
        <time>2020-03-30T18:13:43Z</time>
      </trkpt>
      <trkpt lat="56.916280757584" lon="14.821907475709">
        <ele>156.4</ele>
        <time>2020-03-30T18:13:47Z</time>
      </trkpt>
      <trkpt lat="56.916347728965" lon="14.821836564835">
        <ele>156.6</ele>
        <time>2020-03-30T18:13:52Z</time>
      </trkpt>
      <trkpt lat="56.916356278503" lon="14.821806641452">
        <ele>156.6</ele>
        <time>2020-03-30T18:13:54Z</time>
      </trkpt>
      <trkpt lat="56.916529280919" lon="14.821661969858">
        <ele>157</ele>
        <time>2020-03-30T18:14:03Z</time>
      </trkpt>
      <trkpt lat="56.916557527922" lon="14.821627352611">
        <ele>157.2</ele>
        <time>2020-03-30T18:14:05Z</time>
      </trkpt>
      <trkpt lat="56.916619218706" lon="14.821585694568">
        <ele>157.4</ele>
        <time>2020-03-30T18:14:08Z</time>
      </trkpt>
      <trkpt lat="56.916721310248" lon="14.821304984737">
        <ele>157.6</ele>
        <time>2020-03-30T18:14:18Z</time>
      </trkpt>
      <trkpt lat="56.91673120089" lon="14.821151847424">
        <ele>157</ele>
        <time>2020-03-30T18:14:26Z</time>
      </trkpt>
      <trkpt lat="56.916723238085" lon="14.821087306794">
        <ele>157</ele>
        <time>2020-03-30T18:14:29Z</time>
      </trkpt>
      <trkpt lat="56.916692895607" lon="14.820752701346">
        <ele>157</ele>
        <time>2020-03-30T18:14:41Z</time>
      </trkpt>
      <trkpt lat="56.91673539184" lon="14.820428657092">
        <ele>157</ele>
        <time>2020-03-30T18:14:48Z</time>
      </trkpt>
      <trkpt lat="56.916812086225" lon="14.820113413833">
        <ele>156.8</ele>
        <time>2020-03-30T18:14:56Z</time>
      </trkpt>
      <trkpt lat="56.916862377625" lon="14.819780820041">
        <ele>156.8</ele>
        <time>2020-03-30T18:15:04Z</time>
      </trkpt>
      <trkpt lat="56.916873525552" lon="14.819611840937">
        <ele>156.8</ele>
        <time>2020-03-30T18:15:08Z</time>
      </trkpt>
      <trkpt lat="56.916918620174" lon="14.81945317157">
        <ele>157</ele>
        <time>2020-03-30T18:15:12Z</time>
      </trkpt>
      <trkpt lat="56.916918703993" lon="14.819333729495">
        <ele>156.4</ele>
        <time>2020-03-30T18:15:16Z</time>
      </trkpt>
      <trkpt lat="56.916924990418" lon="14.819237505283">
        <ele>156.4</ele>
        <time>2020-03-30T18:15:19Z</time>
      </trkpt>
      <trkpt lat="56.916953069783" lon="14.819082356314">
        <ele>156.2</ele>
        <time>2020-03-30T18:15:23Z</time>
      </trkpt>
      <trkpt lat="56.916948040643" lon="14.818965177352">
        <ele>156.4</ele>
        <time>2020-03-30T18:15:27Z</time>
      </trkpt>
      <trkpt lat="56.916938317639" lon="14.818878424687">
        <ele>156.4</ele>
        <time>2020-03-30T18:15:29Z</time>
      </trkpt>
      <trkpt lat="56.916897581605" lon="14.818679941295">
        <ele>156.8</ele>
        <time>2020-03-30T18:15:34Z</time>
      </trkpt>
      <trkpt lat="56.916799178099" lon="14.818382132388">
        <ele>156.8</ele>
        <time>2020-03-30T18:15:42Z</time>
      </trkpt>
      <trkpt lat="56.916686190087" lon="14.818121790574">
        <ele>157.2</ele>
        <time>2020-03-30T18:15:49Z</time>
      </trkpt>
      <trkpt lat="56.916622990561" lon="14.817799841795">
        <ele>157</ele>
        <time>2020-03-30T18:15:56Z</time>
      </trkpt>
      <trkpt lat="56.916507320341" lon="14.817585600431">
        <ele>157.2</ele>
        <time>2020-03-30T18:16:04Z</time>
      </trkpt>
      <trkpt lat="56.916535399706" lon="14.817510330969">
        <ele>157.2</ele>
        <time>2020-03-30T18:16:08Z</time>
      </trkpt>
      <trkpt lat="56.916541015579" lon="14.817477390102">
        <ele>157.4</ele>
        <time>2020-03-30T18:16:10Z</time>
      </trkpt>
      <trkpt lat="56.916545625624" lon="14.817413100929">
        <ele>157.4</ele>
        <time>2020-03-30T18:16:13Z</time>
      </trkpt>
      <trkpt lat="56.916551576773" lon="14.817407485056">
        <ele>156.8</ele>
        <time>2020-03-30T18:16:16Z</time>
      </trkpt>
      <trkpt lat="56.916528442729" lon="14.81747588136">
        <ele>157</ele>
        <time>2020-03-30T18:16:29Z</time>
      </trkpt>
      <trkpt lat="56.916528778005" lon="14.817510582426">
        <ele>156.8</ele>
        <time>2020-03-30T18:16:33Z</time>
      </trkpt>
      <trkpt lat="56.916523581227" lon="14.817562131111">
        <ele>156.6</ele>
        <time>2020-03-30T18:16:35Z</time>
      </trkpt>
      <trkpt lat="56.916537998095" lon="14.817608902113">
        <ele>156.4</ele>
        <time>2020-03-30T18:16:38Z</time>
      </trkpt>
      <trkpt lat="56.916555264809" lon="14.817632036157">
        <ele>156.2</ele>
        <time>2020-03-30T18:16:41Z</time>
      </trkpt>
      <trkpt lat="56.9165627247" lon="14.817648213224">
        <ele>156.2</ele>
        <time>2020-03-30T18:16:43Z</time>
      </trkpt>
      <trkpt lat="56.916578482672" lon="14.817674364752">
        <ele>156.4</ele>
        <time>2020-03-30T18:16:46Z</time>
      </trkpt>
      <trkpt lat="56.916633551755" lon="14.817712502397">
        <ele>156.4</ele>
        <time>2020-03-30T18:16:49Z</time>
      </trkpt>
      <trkpt lat="56.916744947206" lon="14.817980220283">
        <ele>156.6</ele>
        <time>2020-03-30T18:16:58Z</time>
      </trkpt>
      <trkpt lat="56.916848044576" lon="14.81827635281">
        <ele>156.8</ele>
        <time>2020-03-30T18:17:08Z</time>
      </trkpt>
      <trkpt lat="56.916984753365" lon="14.818551446768">
        <ele>156.6</ele>
        <time>2020-03-30T18:17:15Z</time>
      </trkpt>
      <trkpt lat="56.917096148816" lon="14.818825283441">
        <ele>156.4</ele>
        <time>2020-03-30T18:17:22Z</time>
      </trkpt>
      <trkpt lat="56.917126658932" lon="14.818874988108">
        <ele>156.6</ele>
        <time>2020-03-30T18:17:24Z</time>
      </trkpt>
      <trkpt lat="56.917164712758" lon="14.818907677518">
        <ele>156.6</ele>
        <time>2020-03-30T18:17:26Z</time>
      </trkpt>
      <trkpt lat="56.917306366868" lon="14.81915477593">
        <ele>156.4</ele>
        <time>2020-03-30T18:17:33Z</time>
      </trkpt>
      <trkpt lat="56.917390521144" lon="14.819473204311">
        <ele>156.2</ele>
        <time>2020-03-30T18:17:42Z</time>
      </trkpt>
      <trkpt lat="56.917437292146" lon="14.819806636293">
        <ele>156.6</ele>
        <time>2020-03-30T18:17:53Z</time>
      </trkpt>
      <trkpt lat="56.917448272435" lon="14.819932113336">
        <ele>156.8</ele>
        <time>2020-03-30T18:17:58Z</time>
      </trkpt>
      <trkpt lat="56.917465036235" lon="14.820008975359">
        <ele>156.8</ele>
        <time>2020-03-30T18:18:01Z</time>
      </trkpt>
      <trkpt lat="56.917497138912" lon="14.820101679173">
        <ele>156.2</ele>
        <time>2020-03-30T18:18:05Z</time>
      </trkpt>
      <trkpt lat="56.917505269355" lon="14.820120119353">
        <ele>156.2</ele>
        <time>2020-03-30T18:18:06Z</time>
      </trkpt>
      <trkpt lat="56.917521781698" lon="14.820177870644">
        <ele>156.2</ele>
        <time>2020-03-30T18:18:09Z</time>
      </trkpt>
      <trkpt lat="56.917518512757" lon="14.820239477609">
        <ele>156</ele>
        <time>2020-03-30T18:18:12Z</time>
      </trkpt>
      <trkpt lat="56.917520272956" lon="14.820276777064">
        <ele>156</ele>
        <time>2020-03-30T18:18:14Z</time>
      </trkpt>
      <trkpt lat="56.917541562982" lon="14.820320446763">
        <ele>156</ele>
        <time>2020-03-30T18:18:17Z</time>
      </trkpt>
      <trkpt lat="56.917551621262" lon="14.82039026799">
        <ele>155.8</ele>
        <time>2020-03-30T18:18:21Z</time>
      </trkpt>
      <trkpt lat="56.917558745877" lon="14.820426896893">
        <ele>155.8</ele>
        <time>2020-03-30T18:18:22Z</time>
      </trkpt>
      <trkpt lat="56.917568049786" lon="14.820538208525">
        <ele>155.6</ele>
        <time>2020-03-30T18:18:25Z</time>
      </trkpt>
      <trkpt lat="56.917569642347" lon="14.820591265952">
        <ele>155.8</ele>
        <time>2020-03-30T18:18:27Z</time>
      </trkpt>
      <trkpt lat="56.917515998187" lon="14.820687406345">
        <ele>155.8</ele>
        <time>2020-03-30T18:18:32Z</time>
      </trkpt>
      <trkpt lat="56.917529912141" lon="14.820626721389">
        <ele>155.6</ele>
        <time>2020-03-30T18:18:39Z</time>
      </trkpt>
      <trkpt lat="56.917628399466" lon="14.820484229089">
        <ele>155.4</ele>
        <time>2020-03-30T18:18:52Z</time>
      </trkpt>
      <trkpt lat="56.917773322517" lon="14.820266970241">
        <ele>156</ele>
        <time>2020-03-30T18:19:01Z</time>
      </trkpt>
      <trkpt lat="56.917911707686" lon="14.820001766925">
        <ele>156.2</ele>
        <time>2020-03-30T18:19:12Z</time>
      </trkpt>
      <trkpt lat="56.91800189693" lon="14.819736395971">
        <ele>156.2</ele>
        <time>2020-03-30T18:19:20Z</time>
      </trkpt>
      <trkpt lat="56.918063168619" lon="14.819680656336">
        <ele>156.4</ele>
        <time>2020-03-30T18:19:24Z</time>
      </trkpt>
      <trkpt lat="56.918082949903" lon="14.819615277516">
        <ele>156.4</ele>
        <time>2020-03-30T18:19:26Z</time>
      </trkpt>
      <trkpt lat="56.918235668121" lon="14.819402125799">
        <ele>156.6</ele>
        <time>2020-03-30T18:19:33Z</time>
      </trkpt>
      <trkpt lat="56.918367599227" lon="14.819158547785">
        <ele>156.6</ele>
        <time>2020-03-30T18:19:41Z</time>
      </trkpt>
      <trkpt lat="56.918394337488" lon="14.819069699645">
        <ele>156.4</ele>
        <time>2020-03-30T18:19:43Z</time>
      </trkpt>
      <trkpt lat="56.918440773214" lon="14.818966266999">
        <ele>156.4</ele>
        <time>2020-03-30T18:19:48Z</time>
      </trkpt>
      <trkpt lat="56.918484778189" lon="14.818907761337">
        <ele>156.6</ele>
        <time>2020-03-30T18:19:51Z</time>
      </trkpt>
      <trkpt lat="56.918535404865" lon="14.818757306232">
        <ele>156.4</ele>
        <time>2020-03-30T18:19:57Z</time>
      </trkpt>
      <trkpt lat="56.918563819506" lon="14.818687736462">
        <ele>156.2</ele>
        <time>2020-03-30T18:20:00Z</time>
      </trkpt>
      <trkpt lat="56.918590054853" lon="14.818636606872">
        <ele>156</ele>
        <time>2020-03-30T18:20:02Z</time>
      </trkpt>
      <trkpt lat="56.918650572171" lon="14.818516829521">
        <ele>156.2</ele>
        <time>2020-03-30T18:20:07Z</time>
      </trkpt>
      <trkpt lat="56.918716537724" lon="14.818190941249">
        <ele>156.6</ele>
        <time>2020-03-30T18:20:16Z</time>
      </trkpt>
      <trkpt lat="56.918784012019" lon="14.818052807537">
        <ele>156.2</ele>
        <time>2020-03-30T18:20:20Z</time>
      </trkpt>
      <trkpt lat="56.918888366674" lon="14.817869327746">
        <ele>156.2</ele>
        <time>2020-03-30T18:20:29Z</time>
      </trkpt>
      <trkpt lat="56.918899514601" lon="14.817861532579">
        <ele>156.4</ele>
        <time>2020-03-30T18:20:31Z</time>
      </trkpt>
      <trkpt lat="56.918953577856" lon="14.817852983041">
        <ele>156.4</ele>
        <time>2020-03-30T18:20:35Z</time>
      </trkpt>
      <trkpt lat="56.919145858642" lon="14.817767152385">
        <ele>156.4</ele>
        <time>2020-03-30T18:20:46Z</time>
      </trkpt>
      <trkpt lat="56.919277454472" lon="14.817759860132">
        <ele>156.2</ele>
        <time>2020-03-30T18:20:51Z</time>
      </trkpt>
      <trkpt lat="56.919366051155" lon="14.817724069419">
        <ele>156.2</ele>
        <time>2020-03-30T18:20:53Z</time>
      </trkpt>
      <trkpt lat="56.919393879063" lon="14.817568752812">
        <ele>156.4</ele>
        <time>2020-03-30T18:20:58Z</time>
      </trkpt>
      <trkpt lat="56.91937317577" lon="14.817465906899">
        <ele>156.6</ele>
        <time>2020-03-30T18:21:02Z</time>
      </trkpt>
      <trkpt lat="56.919360938196" lon="14.817351661602">
        <ele>156.2</ele>
        <time>2020-03-30T18:21:06Z</time>
      </trkpt>
      <trkpt lat="56.919374349236" lon="14.817300112917">
        <ele>156</ele>
        <time>2020-03-30T18:21:08Z</time>
      </trkpt>
      <trkpt lat="56.919420030591" lon="14.817189388018">
        <ele>155.6</ele>
        <time>2020-03-30T18:21:13Z</time>
      </trkpt>
      <trkpt lat="56.919449534879" lon="14.817082099698">
        <ele>157</ele>
        <time>2020-03-30T18:21:17Z</time>
      </trkpt>
      <trkpt lat="56.919473255656" lon="14.817033400859">
        <ele>158.2</ele>
        <time>2020-03-30T18:21:19Z</time>
      </trkpt>
      <trkpt lat="56.919503849591" lon="14.816933320973">
        <ele>159.2</ele>
        <time>2020-03-30T18:21:23Z</time>
      </trkpt>
      <trkpt lat="56.919499993917" lon="14.816850340163">
        <ele>160</ele>
        <time>2020-03-30T18:21:26Z</time>
      </trkpt>
      <trkpt lat="56.919506699437" lon="14.81677850728">
        <ele>160.2</ele>
        <time>2020-03-30T18:21:28Z</time>
      </trkpt>
      <trkpt lat="56.919471998371" lon="14.816571641988">
        <ele>159.6</ele>
        <time>2020-03-30T18:21:32Z</time>
      </trkpt>
      <trkpt lat="56.919457246227" lon="14.816529900126">
        <ele>159</ele>
        <time>2020-03-30T18:21:33Z</time>
      </trkpt>
      <trkpt lat="56.919392286502" lon="14.816226726803">
        <ele>158.4</ele>
        <time>2020-03-30T18:21:39Z</time>
      </trkpt>
      <trkpt lat="56.919385161887" lon="14.815890444975">
        <ele>158.4</ele>
        <time>2020-03-30T18:21:44Z</time>
      </trkpt>
      <trkpt lat="56.919393124692" lon="14.815556342441">
        <ele>159</ele>
        <time>2020-03-30T18:21:50Z</time>
      </trkpt>
      <trkpt lat="56.919409385578" lon="14.815398427445">
        <ele>158.6</ele>
        <time>2020-03-30T18:21:55Z</time>
      </trkpt>
      <trkpt lat="56.919388095552" lon="14.815358445782">
        <ele>158.4</ele>
        <time>2020-03-30T18:21:58Z</time>
      </trkpt>
      <trkpt lat="56.919377199082" lon="14.815335311738">
        <ele>158.6</ele>
        <time>2020-03-30T18:22:00Z</time>
      </trkpt>
      <trkpt lat="56.919315424479" lon="14.815227185228">
        <ele>157.8</ele>
        <time>2020-03-30T18:22:36Z</time>
      </trkpt>
      <trkpt lat="56.919248201641" lon="14.815129871369">
        <ele>158.4</ele>
        <time>2020-03-30T18:22:44Z</time>
      </trkpt>
      <trkpt lat="56.919234120049" lon="14.81510296547">
        <ele>159</ele>
        <time>2020-03-30T18:22:47Z</time>
      </trkpt>
      <trkpt lat="56.919229090909" lon="14.81509290719">
        <ele>159.6</ele>
        <time>2020-03-30T18:22:49Z</time>
      </trkpt>
      <trkpt lat="56.919212327109" lon="14.81505351226">
        <ele>160.2</ele>
        <time>2020-03-30T18:22:52Z</time>
      </trkpt>
      <trkpt lat="56.919204531942" lon="14.815036999917">
        <ele>160.4</ele>
        <time>2020-03-30T18:22:54Z</time>
      </trkpt>
      <trkpt lat="56.919206878874" lon="14.815021744859">
        <ele>160.8</ele>
        <time>2020-03-30T18:22:57Z</time>
      </trkpt>
      <trkpt lat="56.919218278258" lon="14.815000371014">
        <ele>161</ele>
        <time>2020-03-30T18:22:59Z</time>
      </trkpt>
      <trkpt lat="56.919225151416" lon="14.814980170635">
        <ele>161.2</ele>
        <time>2020-03-30T18:23:01Z</time>
      </trkpt>
      <trkpt lat="56.919290362598" lon="14.81483977381">
        <ele>161</ele>
        <time>2020-03-30T18:23:10Z</time>
      </trkpt>
      <trkpt lat="56.919380384204" lon="14.81465453382">
        <ele>160.2</ele>
        <time>2020-03-30T18:23:18Z</time>
      </trkpt>
      <trkpt lat="56.919384323697" lon="14.814613546329">
        <ele>160.2</ele>
        <time>2020-03-30T18:23:20Z</time>
      </trkpt>
      <trkpt lat="56.91938910138" lon="14.814596111977">
        <ele>160.2</ele>
        <time>2020-03-30T18:23:22Z</time>
      </trkpt>
      <trkpt lat="56.919399746393" lon="14.814583539127">
        <ele>160</ele>
        <time>2020-03-30T18:23:24Z</time>
      </trkpt>
      <trkpt lat="56.91944442192" lon="14.814542551636">
        <ele>160</ele>
        <time>2020-03-30T18:23:29Z</time>
      </trkpt>
      <trkpt lat="56.919482308108" lon="14.814507599113">
        <ele>160.8</ele>
        <time>2020-03-30T18:23:34Z</time>
      </trkpt>
      <trkpt lat="56.919533186241" lon="14.814486309087">
        <ele>161.4</ele>
        <time>2020-03-30T18:23:38Z</time>
      </trkpt>
      <trkpt lat="56.919556404104" lon="14.814471389305">
        <ele>161.8</ele>
        <time>2020-03-30T18:23:41Z</time>
      </trkpt>
      <trkpt lat="56.919568725497" lon="14.814617150546">
        <ele>160.6</ele>
        <time>2020-03-30T18:23:52Z</time>
      </trkpt>
      <trkpt lat="56.919566462384" lon="14.814638356753">
        <ele>160.4</ele>
        <time>2020-03-30T18:23:53Z</time>
      </trkpt>
      <trkpt lat="56.919530252576" lon="14.814764671986">
        <ele>160.2</ele>
        <time>2020-03-30T18:23:59Z</time>
      </trkpt>
      <trkpt lat="56.919522960323" lon="14.814773724438">
        <ele>160.2</ele>
        <time>2020-03-30T18:24:00Z</time>
      </trkpt>
      <trkpt lat="56.919508208179" lon="14.814786632564">
        <ele>160.4</ele>
        <time>2020-03-30T18:24:02Z</time>
      </trkpt>
      <trkpt lat="56.919476776054" lon="14.814895513445">
        <ele>160.4</ele>
        <time>2020-03-30T18:24:09Z</time>
      </trkpt>
      <trkpt lat="56.919493958949" lon="14.814938847868">
        <ele>160.4</ele>
        <time>2020-03-30T18:24:12Z</time>
      </trkpt>
      <trkpt lat="56.919510052197" lon="14.814970279993">
        <ele>160.4</ele>
        <time>2020-03-30T18:24:15Z</time>
      </trkpt>
      <trkpt lat="56.919518434097" lon="14.814990731829">
        <ele>160.6</ele>
        <time>2020-03-30T18:24:17Z</time>
      </trkpt>
      <trkpt lat="56.919529665843" lon="14.815011099846">
        <ele>160.6</ele>
        <time>2020-03-30T18:24:19Z</time>
      </trkpt>
      <trkpt lat="56.919536874277" lon="14.815023421239">
        <ele>160.4</ele>
        <time>2020-03-30T18:24:21Z</time>
      </trkpt>
      <trkpt lat="56.919521116305" lon="14.815198854406">
        <ele>160.2</ele>
        <time>2020-03-30T18:24:32Z</time>
      </trkpt>
      <trkpt lat="56.919525893988" lon="14.815231040902">
        <ele>159.8</ele>
        <time>2020-03-30T18:24:34Z</time>
      </trkpt>
      <trkpt lat="56.919579705786" lon="14.815245122494">
        <ele>159.4</ele>
        <time>2020-03-30T18:24:40Z</time>
      </trkpt>
      <trkpt lat="56.919607701332" lon="14.815371018632">
        <ele>159.2</ele>
        <time>2020-03-30T18:24:48Z</time>
      </trkpt>
      <trkpt lat="56.919639552552" lon="14.815425836258">
        <ele>158.4</ele>
        <time>2020-03-30T18:24:52Z</time>
      </trkpt>
      <trkpt lat="56.919673583066" lon="14.815431787407">
        <ele>158.2</ele>
        <time>2020-03-30T18:24:54Z</time>
      </trkpt>
      <trkpt lat="56.919754971315" lon="14.815421896765">
        <ele>158.4</ele>
        <time>2020-03-30T18:24:58Z</time>
      </trkpt>
      <trkpt lat="56.919829905501" lon="14.815428518466">
        <ele>159.4</ele>
        <time>2020-03-30T18:25:02Z</time>
      </trkpt>
      <trkpt lat="56.919865025662" lon="14.815418795462">
        <ele>160</ele>
        <time>2020-03-30T18:25:05Z</time>
      </trkpt>
      <trkpt lat="56.919945324264" lon="14.815419466014">
        <ele>160.2</ele>
        <time>2020-03-30T18:25:12Z</time>
      </trkpt>
      <trkpt lat="56.92003953682" lon="14.815355847393">
        <ele>160.8</ele>
        <time>2020-03-30T18:25:18Z</time>
      </trkpt>
      <trkpt lat="56.920099551224" lon="14.815278650094">
        <ele>161</ele>
        <time>2020-03-30T18:25:23Z</time>
      </trkpt>
      <trkpt lat="56.920104999459" lon="14.815231543816">
        <ele>161.2</ele>
        <time>2020-03-30T18:25:25Z</time>
      </trkpt>
      <trkpt lat="56.920103658355" lon="14.815221904631">
        <ele>161.2</ele>
        <time>2020-03-30T18:25:26Z</time>
      </trkpt>
      <trkpt lat="56.920095360274" lon="14.815222407545">
        <ele>161.4</ele>
        <time>2020-03-30T18:25:28Z</time>
      </trkpt>
      <trkpt lat="56.92006132976" lon="14.815241015363">
        <ele>162.2</ele>
        <time>2020-03-30T18:25:32Z</time>
      </trkpt>
      <trkpt lat="56.920018079156" lon="14.815239171345">
        <ele>161.6</ele>
        <time>2020-03-30T18:25:35Z</time>
      </trkpt>
      <trkpt lat="56.920003243193" lon="14.815255599869">
        <ele>161</ele>
        <time>2020-03-30T18:25:37Z</time>
      </trkpt>
      <trkpt lat="56.919972984534" lon="14.815274459144">
        <ele>160.6</ele>
        <time>2020-03-30T18:25:40Z</time>
      </trkpt>
      <trkpt lat="56.919967787756" lon="14.815288624555">
        <ele>160.4</ele>
        <time>2020-03-30T18:25:41Z</time>
      </trkpt>
      <trkpt lat="56.919954795811" lon="14.815303209061">
        <ele>160.2</ele>
        <time>2020-03-30T18:25:44Z</time>
      </trkpt>
      <trkpt lat="56.919953287069" lon="14.815127524437">
        <ele>160.4</ele>
        <time>2020-03-30T18:25:54Z</time>
      </trkpt>
      <trkpt lat="56.919964602634" lon="14.814987881983">
        <ele>160.8</ele>
        <time>2020-03-30T18:25:58Z</time>
      </trkpt>
      <trkpt lat="56.92003786044" lon="14.81484983209">
        <ele>161.2</ele>
        <time>2020-03-30T18:26:05Z</time>
      </trkpt>
      <trkpt lat="56.920078428836" lon="14.814801049432">
        <ele>160.2</ele>
        <time>2020-03-30T18:26:09Z</time>
      </trkpt>
      <trkpt lat="56.920092594247" lon="14.814742795227">
        <ele>160</ele>
        <time>2020-03-30T18:26:11Z</time>
      </trkpt>
      <trkpt lat="56.920138694697" lon="14.814557806694">
        <ele>160.2</ele>
        <time>2020-03-30T18:26:18Z</time>
      </trkpt>
      <trkpt lat="56.920116398843" lon="14.814297213423">
        <ele>161</ele>
        <time>2020-03-30T18:26:25Z</time>
      </trkpt>
      <trkpt lat="56.920113465178" lon="14.81430333221">
        <ele>161.2</ele>
        <time>2020-03-30T18:26:26Z</time>
      </trkpt>
      <trkpt lat="56.920125116019" lon="14.814353958886">
        <ele>161.2</ele>
        <time>2020-03-30T18:26:30Z</time>
      </trkpt>
      <trkpt lat="56.920131318625" lon="14.814404417924">
        <ele>161</ele>
        <time>2020-03-30T18:26:32Z</time>
      </trkpt>
      <trkpt lat="56.920122014716" lon="14.814614803614">
        <ele>160.4</ele>
        <time>2020-03-30T18:26:39Z</time>
      </trkpt>
      <trkpt lat="56.920131402444" lon="14.81465285744">
        <ele>160.6</ele>
        <time>2020-03-30T18:26:41Z</time>
      </trkpt>
      <trkpt lat="56.920137185955" lon="14.81473751463">
        <ele>161</ele>
        <time>2020-03-30T18:26:46Z</time>
      </trkpt>
      <trkpt lat="56.920150010262" lon="14.814750338937">
        <ele>160.8</ele>
        <time>2020-03-30T18:26:47Z</time>
      </trkpt>
      <trkpt lat="56.920178424903" lon="14.814767354194">
        <ele>160.6</ele>
        <time>2020-03-30T18:26:49Z</time>
      </trkpt>
      <trkpt lat="56.920240786239" lon="14.814750674213">
        <ele>160.6</ele>
        <time>2020-03-30T18:26:54Z</time>
      </trkpt>
      <trkpt lat="56.920243468447" lon="14.814713877672">
        <ele>160.8</ele>
        <time>2020-03-30T18:26:56Z</time>
      </trkpt>
      <trkpt lat="56.920246234474" lon="14.814654282363">
        <ele>161.4</ele>
        <time>2020-03-30T18:26:58Z</time>
      </trkpt>
      <trkpt lat="56.920276576952" lon="14.814572977933">
        <ele>162.2</ele>
        <time>2020-03-30T18:27:01Z</time>
      </trkpt>
      <trkpt lat="56.920282695739" lon="14.814544647111">
        <ele>162.2</ele>
        <time>2020-03-30T18:27:02Z</time>
      </trkpt>
      <trkpt lat="56.92032452142" lon="14.814444734863">
        <ele>161.2</ele>
        <time>2020-03-30T18:27:07Z</time>
      </trkpt>
      <trkpt lat="56.920318486452" lon="14.814421097905">
        <ele>161</ele>
        <time>2020-03-30T18:27:08Z</time>
      </trkpt>
      <trkpt lat="56.920339273564" lon="14.814404837019">
        <ele>160.6</ele>
        <time>2020-03-30T18:27:10Z</time>
      </trkpt>
      <trkpt lat="56.920379758141" lon="14.814375584188">
        <ele>160.4</ele>
        <time>2020-03-30T18:27:13Z</time>
      </trkpt>
      <trkpt lat="56.920412363732" lon="14.814345409348">
        <ele>160.2</ele>
        <time>2020-03-30T18:27:17Z</time>
      </trkpt>
      <trkpt lat="56.920443963495" lon="14.814360412949">
        <ele>160.2</ele>
        <time>2020-03-30T18:27:21Z</time>
      </trkpt>
      <trkpt lat="56.920452177757" lon="14.814371477057">
        <ele>160</ele>
        <time>2020-03-30T18:27:22Z</time>
      </trkpt>
      <trkpt lat="56.920513700903" lon="14.814387821762">
        <ele>160</ele>
        <time>2020-03-30T18:27:26Z</time>
      </trkpt>
      <trkpt lat="56.920516802206" lon="14.814395197834">
        <ele>160</ele>
        <time>2020-03-30T18:27:27Z</time>
      </trkpt>
      <trkpt lat="56.920577403343" lon="14.814493433702">
        <ele>159.2</ele>
        <time>2020-03-30T18:27:34Z</time>
      </trkpt>
      <trkpt lat="56.920587126347" lon="14.814854693592">
        <ele>159</ele>
        <time>2020-03-30T18:27:47Z</time>
      </trkpt>
      <trkpt lat="56.920629538761" lon="14.814933064357">
        <ele>158.6</ele>
        <time>2020-03-30T18:27:52Z</time>
      </trkpt>
      <trkpt lat="56.920652756624" lon="14.814943290275">
        <ele>158.4</ele>
        <time>2020-03-30T18:27:54Z</time>
      </trkpt>
      <trkpt lat="56.920744957524" lon="14.81485234666">
        <ele>158.2</ele>
        <time>2020-03-30T18:28:02Z</time>
      </trkpt>
      <trkpt lat="56.920825591402" lon="14.81475846938">
        <ele>158.2</ele>
        <time>2020-03-30T18:28:12Z</time>
      </trkpt>
      <trkpt lat="56.920861885029" lon="14.81481714268">
        <ele>158.2</ele>
        <time>2020-03-30T18:28:16Z</time>
      </trkpt>
      <trkpt lat="56.920869764015" lon="14.814882772957">
        <ele>158.2</ele>
        <time>2020-03-30T18:28:18Z</time>
      </trkpt>
      <trkpt lat="56.920875715164" lon="14.814922922258">
        <ele>158</ele>
        <time>2020-03-30T18:28:19Z</time>
      </trkpt>
      <trkpt lat="56.920904297443" lon="14.814981176463">
        <ele>157.8</ele>
        <time>2020-03-30T18:28:21Z</time>
      </trkpt>
      <trkpt lat="56.920964647123" lon="14.815309411667">
        <ele>158.2</ele>
        <time>2020-03-30T18:28:29Z</time>
      </trkpt>
      <trkpt lat="56.921005215519" lon="14.815380154903">
        <ele>158.2</ele>
        <time>2020-03-30T18:28:32Z</time>
      </trkpt>
      <trkpt lat="56.921021727862" lon="14.815394907047">
        <ele>157.8</ele>
        <time>2020-03-30T18:28:33Z</time>
      </trkpt>
      <trkpt lat="56.921107558518" lon="14.815400439101">
        <ele>156.8</ele>
        <time>2020-03-30T18:28:36Z</time>
      </trkpt>
      <trkpt lat="56.921200932884" lon="14.815440085488">
        <ele>158</ele>
        <time>2020-03-30T18:28:40Z</time>
      </trkpt>
      <trkpt lat="56.921396231154" lon="14.815459447677">
        <ele>157.6</ele>
        <time>2020-03-30T18:28:47Z</time>
      </trkpt>
      <trkpt lat="56.921503519474" lon="14.815468081034">
        <ele>157.4</ele>
        <time>2020-03-30T18:28:52Z</time>
      </trkpt>
      <trkpt lat="56.92151978036" lon="14.815498004417">
        <ele>157.2</ele>
        <time>2020-03-30T18:28:54Z</time>
      </trkpt>
      <trkpt lat="56.92152816226" lon="14.81557486644">
        <ele>157</ele>
        <time>2020-03-30T18:28:56Z</time>
      </trkpt>
      <trkpt lat="56.921539980739" lon="14.81565114173">
        <ele>156.8</ele>
        <time>2020-03-30T18:28:58Z</time>
      </trkpt>
      <trkpt lat="56.921598067306" lon="14.815738062033">
        <ele>156.8</ele>
        <time>2020-03-30T18:29:02Z</time>
      </trkpt>
      <trkpt lat="56.921681299573" lon="14.815781144999">
        <ele>156.4</ele>
        <time>2020-03-30T18:29:09Z</time>
      </trkpt>
      <trkpt lat="56.921700913219" lon="14.815880554333">
        <ele>156.8</ele>
        <time>2020-03-30T18:29:12Z</time>
      </trkpt>
      <trkpt lat="56.921718096114" lon="14.81598557954">
        <ele>157.2</ele>
        <time>2020-03-30T18:29:16Z</time>
      </trkpt>
      <trkpt lat="56.921718766666" lon="14.816131089324">
        <ele>157</ele>
        <time>2020-03-30T18:29:22Z</time>
      </trkpt>
      <trkpt lat="56.921724382539" lon="14.816257236919">
        <ele>156.8</ele>
        <time>2020-03-30T18:29:26Z</time>
      </trkpt>
      <trkpt lat="56.921727232385" lon="14.816306522491">
        <ele>156.6</ele>
        <time>2020-03-30T18:29:28Z</time>
      </trkpt>
      <trkpt lat="56.921810883747" lon="14.816622101026">
        <ele>157</ele>
        <time>2020-03-30T18:29:33Z</time>
      </trkpt>
      <trkpt lat="56.921817086353" lon="14.816958466673">
        <ele>157</ele>
        <time>2020-03-30T18:29:38Z</time>
      </trkpt>
      <trkpt lat="56.921807782444" lon="14.817077238196">
        <ele>157.2</ele>
        <time>2020-03-30T18:29:41Z</time>
      </trkpt>
      <trkpt lat="56.921757239587" lon="14.817199027203">
        <ele>158.2</ele>
        <time>2020-03-30T18:29:46Z</time>
      </trkpt>
      <trkpt lat="56.921712731698" lon="14.81736607847">
        <ele>158</ele>
        <time>2020-03-30T18:29:50Z</time>
      </trkpt>
      <trkpt lat="56.921678030632" lon="14.817397762052">
        <ele>157.6</ele>
        <time>2020-03-30T18:29:52Z</time>
      </trkpt>
      <trkpt lat="56.921644419213" lon="14.81739625331">
        <ele>157.6</ele>
        <time>2020-03-30T18:29:54Z</time>
      </trkpt>
      <trkpt lat="56.921571496683" lon="14.817437827534">
        <ele>157.8</ele>
        <time>2020-03-30T18:29:57Z</time>
      </trkpt>
      <trkpt lat="56.921409223099" lon="14.81760160986">
        <ele>156.8</ele>
        <time>2020-03-30T18:30:03Z</time>
      </trkpt>
      <trkpt lat="56.921357422957" lon="14.817655840753">
        <ele>155.6</ele>
        <time>2020-03-30T18:30:05Z</time>
      </trkpt>
      <trkpt lat="56.921242255651" lon="14.817968317985">
        <ele>155.4</ele>
        <time>2020-03-30T18:30:11Z</time>
      </trkpt>
      <trkpt lat="56.92116354961" lon="14.818273754421">
        <ele>155</ele>
        <time>2020-03-30T18:30:17Z</time>
      </trkpt>
      <trkpt lat="56.921057770032" lon="14.818582627436">
        <ele>154.6</ele>
        <time>2020-03-30T18:30:23Z</time>
      </trkpt>
      <trkpt lat="56.920981410923" lon="14.818916646151">
        <ele>154.2</ele>
        <time>2020-03-30T18:30:28Z</time>
      </trkpt>
      <trkpt lat="56.920935310473" lon="14.819262399526">
        <ele>153.4</ele>
        <time>2020-03-30T18:30:33Z</time>
      </trkpt>
      <trkpt lat="56.920956684318" lon="14.81958812016">
        <ele>153</ele>
        <time>2020-03-30T18:30:38Z</time>
      </trkpt>
      <trkpt lat="56.921065732837" lon="14.819888359818">
        <ele>154.2</ele>
        <time>2020-03-30T18:30:43Z</time>
      </trkpt>
      <trkpt lat="56.921078473325" lon="14.8199451891">
        <ele>154.6</ele>
        <time>2020-03-30T18:30:44Z</time>
      </trkpt>
      <trkpt lat="56.921123232671" lon="14.82020167524">
        <ele>153.6</ele>
        <time>2020-03-30T18:30:49Z</time>
      </trkpt>
      <trkpt lat="56.921132117485" lon="14.82024609931">
        <ele>153.4</ele>
        <time>2020-03-30T18:30:50Z</time>
      </trkpt>
      <trkpt lat="56.921217361408" lon="14.820583219328">
        <ele>154.8</ele>
        <time>2020-03-30T18:30:56Z</time>
      </trkpt>
      <trkpt lat="56.921303946435" lon="14.820825623876">
        <ele>153.2</ele>
        <time>2020-03-30T18:31:01Z</time>
      </trkpt>
      <trkpt lat="56.921402601398" lon="14.821078757256">
        <ele>153.6</ele>
        <time>2020-03-30T18:31:09Z</time>
      </trkpt>
      <trkpt lat="56.921308807937" lon="14.820991501677">
        <ele>153</ele>
        <time>2020-03-30T18:31:15Z</time>
      </trkpt>
      <trkpt lat="56.921409390737" lon="14.821187219042">
        <ele>152.4</ele>
        <time>2020-03-30T18:31:21Z</time>
      </trkpt>
      <trkpt lat="56.921443421251" lon="14.821212029466">
        <ele>152</ele>
        <time>2020-03-30T18:31:22Z</time>
      </trkpt>
      <trkpt lat="56.921511482279" lon="14.821200294806">
        <ele>151</ele>
        <time>2020-03-30T18:31:24Z</time>
      </trkpt>
      <trkpt lat="56.921550541933" lon="14.821186045576">
        <ele>150.8</ele>
        <time>2020-03-30T18:31:25Z</time>
      </trkpt>
      <trkpt lat="56.921640228263" lon="14.821125863534">
        <ele>152.2</ele>
        <time>2020-03-30T18:31:28Z</time>
      </trkpt>
      <trkpt lat="56.921854804903" lon="14.821023436716">
        <ele>151.6</ele>
        <time>2020-03-30T18:31:32Z</time>
      </trkpt>
      <trkpt lat="56.921911969461" lon="14.820981611035">
        <ele>151</ele>
        <time>2020-03-30T18:31:34Z</time>
      </trkpt>
      <trkpt lat="56.922083546954" lon="14.820840124563">
        <ele>150.2</ele>
        <time>2020-03-30T18:31:39Z</time>
      </trkpt>
      <trkpt lat="56.922259147759" lon="14.820717916461">
        <ele>150.2</ele>
        <time>2020-03-30T18:31:44Z</time>
      </trkpt>
      <trkpt lat="56.922431060528" lon="14.820597217101">
        <ele>152.6</ele>
        <time>2020-03-30T18:31:49Z</time>
      </trkpt>
      <trkpt lat="56.922549496775" lon="14.820535107222">
        <ele>153.4</ele>
        <time>2020-03-30T18:31:53Z</time>
      </trkpt>
      <trkpt lat="56.922590735723" lon="14.820530832453">
        <ele>153.2</ele>
        <time>2020-03-30T18:31:55Z</time>
      </trkpt>
      <trkpt lat="56.922772120039" lon="14.82064004861">
        <ele>152</ele>
        <time>2020-03-30T18:32:02Z</time>
      </trkpt>
      <trkpt lat="56.922789135296" lon="14.820645413026">
        <ele>151.8</ele>
        <time>2020-03-30T18:32:03Z</time>
      </trkpt>
      <trkpt lat="56.922641530037" lon="14.820389094524">
        <ele>151.8</ele>
        <time>2020-03-30T18:32:11Z</time>
      </trkpt>
      <trkpt lat="56.92261361831" lon="14.820331846147">
        <ele>151.6</ele>
        <time>2020-03-30T18:32:12Z</time>
      </trkpt>
      <trkpt lat="56.922475484598" lon="14.820112910919">
        <ele>151</ele>
        <time>2020-03-30T18:32:17Z</time>
      </trkpt>
      <trkpt lat="56.922343134397" lon="14.819864974317">
        <ele>152.6</ele>
        <time>2020-03-30T18:32:22Z</time>
      </trkpt>
      <trkpt lat="56.922250430583" lon="14.819563393555">
        <ele>153.6</ele>
        <time>2020-03-30T18:32:28Z</time>
      </trkpt>
      <trkpt lat="56.922211203291" lon="14.819196433973">
        <ele>153.2</ele>
        <time>2020-03-30T18:32:34Z</time>
      </trkpt>
      <trkpt lat="56.922220088105" lon="14.818871719167">
        <ele>152.6</ele>
        <time>2020-03-30T18:32:41Z</time>
      </trkpt>
      <trkpt lat="56.922189326532" lon="14.819045392135">
        <ele>152.6</ele>
        <time>2020-03-30T18:32:55Z</time>
      </trkpt>
      <trkpt lat="56.9220863968" lon="14.819313361478">
        <ele>152.6</ele>
        <time>2020-03-30T18:33:03Z</time>
      </trkpt>
      <trkpt lat="56.921925883415" lon="14.819561046623">
        <ele>152.4</ele>
        <time>2020-03-30T18:33:09Z</time>
      </trkpt>
      <trkpt lat="56.921783642572" lon="14.819811497795">
        <ele>151.8</ele>
        <time>2020-03-30T18:33:15Z</time>
      </trkpt>
      <trkpt lat="56.921666295972" lon="14.820033450507">
        <ele>151.6</ele>
        <time>2020-03-30T18:33:21Z</time>
      </trkpt>
      <trkpt lat="56.92151558941" lon="14.820155239514">
        <ele>153</ele>
        <time>2020-03-30T18:33:26Z</time>
      </trkpt>
      <trkpt lat="56.921374522033" lon="14.820440307933">
        <ele>153</ele>
        <time>2020-03-30T18:33:33Z</time>
      </trkpt>
      <trkpt lat="56.92122809024" lon="14.820647508501">
        <ele>152.8</ele>
        <time>2020-03-30T18:33:38Z</time>
      </trkpt>
      <trkpt lat="56.921140164109" lon="14.820742643066">
        <ele>154</ele>
        <time>2020-03-30T18:33:41Z</time>
      </trkpt>
      <trkpt lat="56.921049723408" lon="14.82082109765">
        <ele>155.2</ele>
        <time>2020-03-30T18:33:44Z</time>
      </trkpt>
      <trkpt lat="56.921003287682" lon="14.820874657991">
        <ele>155.4</ele>
        <time>2020-03-30T18:33:46Z</time>
      </trkpt>
      <trkpt lat="56.920896334638" lon="14.821192248182">
        <ele>155.2</ele>
        <time>2020-03-30T18:33:52Z</time>
      </trkpt>
      <trkpt lat="56.920811593629" lon="14.821399197293">
        <ele>155.4</ele>
        <time>2020-03-30T18:33:57Z</time>
      </trkpt>
      <trkpt lat="56.920750154302" lon="14.821433143988">
        <ele>155.6</ele>
        <time>2020-03-30T18:34:00Z</time>
      </trkpt>
      <trkpt lat="56.920713776856" lon="14.821409339392">
        <ele>156</ele>
        <time>2020-03-30T18:34:02Z</time>
      </trkpt>
      <trkpt lat="56.920692654468" lon="14.821385115701">
        <ele>156.4</ele>
        <time>2020-03-30T18:34:03Z</time>
      </trkpt>
      <trkpt lat="56.920668095501" lon="14.821350246997">
        <ele>157.4</ele>
        <time>2020-03-30T18:34:05Z</time>
      </trkpt>
      <trkpt lat="56.920541864087" lon="14.821624670403">
        <ele>158</ele>
        <time>2020-03-30T18:34:13Z</time>
      </trkpt>
      <trkpt lat="56.920509845229" lon="14.821970842873">
        <ele>156.8</ele>
        <time>2020-03-30T18:34:19Z</time>
      </trkpt>
      <trkpt lat="56.920510012867" lon="14.822108389852">
        <ele>156</ele>
        <time>2020-03-30T18:34:21Z</time>
      </trkpt>
      <trkpt lat="56.920522082803" lon="14.822304274855">
        <ele>154.6</ele>
        <time>2020-03-30T18:34:24Z</time>
      </trkpt>
      <trkpt lat="56.920527950133" lon="14.822619518114">
        <ele>153.6</ele>
        <time>2020-03-30T18:34:28Z</time>
      </trkpt>
      <trkpt lat="56.920534990929" lon="14.822954207381">
        <ele>153.6</ele>
        <time>2020-03-30T18:34:33Z</time>
      </trkpt>
      <trkpt lat="56.920548653426" lon="14.823295853625">
        <ele>152.8</ele>
        <time>2020-03-30T18:34:39Z</time>
      </trkpt>
      <trkpt lat="56.920561226276" lon="14.823337511668">
        <ele>152.8</ele>
        <time>2020-03-30T18:34:41Z</time>
      </trkpt>
      <trkpt lat="56.920639345584" lon="14.823324687361">
        <ele>152.4</ele>
        <time>2020-03-30T18:34:46Z</time>
      </trkpt>
      <trkpt lat="56.920640016136" lon="14.823386964878">
        <ele>151</ele>
        <time>2020-03-30T18:34:50Z</time>
      </trkpt>
      <trkpt lat="56.920649655321" lon="14.823437172459">
        <ele>150.8</ele>
        <time>2020-03-30T18:34:51Z</time>
      </trkpt>
      <trkpt lat="56.920653343357" lon="14.823606486839">
        <ele>150.2</ele>
        <time>2020-03-30T18:34:54Z</time>
      </trkpt>
      <trkpt lat="56.920640686688" lon="14.823656359144">
        <ele>150</ele>
        <time>2020-03-30T18:34:55Z</time>
      </trkpt>
      <trkpt lat="56.920548485788" lon="14.823897841683">
        <ele>151.2</ele>
        <time>2020-03-30T18:35:00Z</time>
      </trkpt>
      <trkpt lat="56.920511186333" lon="14.824006471107">
        <ele>152.4</ele>
        <time>2020-03-30T18:35:02Z</time>
      </trkpt>
      <trkpt lat="56.920469444471" lon="14.824115603445">
        <ele>153.4</ele>
        <time>2020-03-30T18:35:04Z</time>
      </trkpt>
      <trkpt lat="56.920319073185" lon="14.824376951087">
        <ele>152.6</ele>
        <time>2020-03-30T18:35:10Z</time>
      </trkpt>
      <trkpt lat="56.920293759847" lon="14.824425230831">
        <ele>152.4</ele>
        <time>2020-03-30T18:35:11Z</time>
      </trkpt>
      <trkpt lat="56.920149423529" lon="14.824680878781">
        <ele>151.8</ele>
        <time>2020-03-30T18:35:17Z</time>
      </trkpt>
      <trkpt lat="56.920112207893" lon="14.824758495175">
        <ele>151.6</ele>
        <time>2020-03-30T18:35:19Z</time>
      </trkpt>
      <trkpt lat="56.920105250916" lon="14.824757573166">
        <ele>151.6</ele>
        <time>2020-03-30T18:35:21Z</time>
      </trkpt>
      <trkpt lat="56.920072477687" lon="14.824620529101">
        <ele>151.6</ele>
        <time>2020-03-30T18:35:24Z</time>
      </trkpt>
      <trkpt lat="56.919981114977" lon="14.824372257223">
        <ele>151.4</ele>
        <time>2020-03-30T18:35:28Z</time>
      </trkpt>
      <trkpt lat="56.91986938425" lon="14.824089032822">
        <ele>151.4</ele>
        <time>2020-03-30T18:35:32Z</time>
      </trkpt>
      <trkpt lat="56.919793276598" lon="14.82388132934">
        <ele>151.8</ele>
        <time>2020-03-30T18:35:35Z</time>
      </trkpt>
      <trkpt lat="56.919771818934" lon="14.823772616097">
        <ele>152.4</ele>
        <time>2020-03-30T18:35:37Z</time>
      </trkpt>
      <trkpt lat="56.919682551699" lon="14.823446392549">
        <ele>153.2</ele>
        <time>2020-03-30T18:35:43Z</time>
      </trkpt>
      <trkpt lat="56.919645168425" lon="14.823245059311">
        <ele>153.2</ele>
        <time>2020-03-30T18:35:48Z</time>
      </trkpt>
    </trkseg>
  </trk>
</gpx>